sensor_id;sensor_type;location;lat;lon;timestamp;temperature;humidity
56137;DHT22;42008;52.934;5.884;2023-02-15T00:01:42;0.70;99.90
56137;DHT22;42008;52.934;5.884;2023-02-15T00:04:09;1.10;99.90
56137;DHT22;42008;52.934;5.884;2023-02-15T00:06:35;0.70;99.90
56137;DHT22;42008;52.934;5.884;2023-02-15T00:09:02;1.10;99.90
56137;DHT22;42008;52.934;5.884;2023-02-15T00:11:28;1.80;99.90
56137;DHT22;42008;52.934;5.884;2023-02-15T00:14:10;1.10;99.90
56137;DHT22;42008;52.934;5.884;2023-02-15T00:16:37;1.70;1.00
56137;DHT22;42008;52.934;5.884;2023-02-15T00:19:04;1.60;1.00
56137;DHT22;42008;52.934;5.884;2023-02-15T00:21:34;1.10;99.90
56137;DHT22;42008;52.934;5.884;2023-02-15T00:24:01;1.50;99.90
56137;DHT22;42008;52.934;5.884;2023-02-15T00:26:28;1.10;99.90
56137;DHT22;42008;52.934;5.884;2023-02-15T00:28:53;0.90;99.90
56137;DHT22;42008;52.934;5.884;2023-02-15T00:31:20;1.10;99.90
56137;DHT22;42008;52.934;5.884;2023-02-15T00:33:46;1.30;99.90
56137;DHT22;42008;52.934;5.884;2023-02-15T00:36:12;1.00;99.90
56137;DHT22;42008;52.934;5.884;2023-02-15T00:38:38;0.80;99.90
56137;DHT22;42008;52.934;5.884;2023-02-15T00:41:06;1.00;99.90
56137;DHT22;42008;52.934;5.884;2023-02-15T00:43:33;0.90;99.90
56137;DHT22;42008;52.934;5.884;2023-02-15T00:45:59;0.60;99.90
56137;DHT22;42008;52.934;5.884;2023-02-15T00:48:25;0.20;99.90
56137;DHT22;42008;52.934;5.884;2023-02-15T00:50:53;0.70;99.90
56137;DHT22;42008;52.934;5.884;2023-02-15T00:53:20;1.70;1.00
56137;DHT22;42008;52.934;5.884;2023-02-15T00:55:46;1.40;1.00
56137;DHT22;42008;52.934;5.884;2023-02-15T00:58:12;1.80;1.00
56137;DHT22;42008;52.934;5.884;2023-02-15T01:00:39;2.10;1.00
56137;DHT22;42008;52.934;5.884;2023-02-15T01:03:05;2.20;1.00
56137;DHT22;42008;52.934;5.884;2023-02-15T01:05:31;2.10;1.00
56137;DHT22;42008;52.934;5.884;2023-02-15T01:07:57;1.40;1.00
56137;DHT22;42008;52.934;5.884;2023-02-15T01:10:23;1.00;1.00
56137;DHT22;42008;52.934;5.884;2023-02-15T01:12:54;1.20;1.00
56137;DHT22;42008;52.934;5.884;2023-02-15T01:15:20;1.50;1.00
56137;DHT22;42008;52.934;5.884;2023-02-15T01:17:45;1.10;1.00
56137;DHT22;42008;52.934;5.884;2023-02-15T01:20:17;0.90;1.00
56137;DHT22;42008;52.934;5.884;2023-02-15T01:22:43;0.10;1.00
56137;DHT22;42008;52.934;5.884;2023-02-15T01:25:08;0.90;1.00
56137;DHT22;42008;52.934;5.884;2023-02-15T01:27:34;0.10;1.00
56137;DHT22;42008;52.934;5.884;2023-02-15T01:29:59;1.00;1.00
56137;DHT22;42008;52.934;5.884;2023-02-15T01:32:25;0.60;1.00
56137;DHT22;42008;52.934;5.884;2023-02-15T01:34:52;0.80;1.00
56137;DHT22;42008;52.934;5.884;2023-02-15T01:37:18;0.40;1.00
56137;DHT22;42008;52.934;5.884;2023-02-15T01:39:44;1.00;1.00
56137;DHT22;42008;52.934;5.884;2023-02-15T01:42:13;1.00;5.10
56137;DHT22;42008;52.934;5.884;2023-02-15T01:44:52;1.20;1.00
56137;DHT22;42008;52.934;5.884;2023-02-15T01:47:34;1.40;1.00
56137;DHT22;42008;52.934;5.884;2023-02-15T01:52:30;1.00;66.00
56137;DHT22;42008;52.934;5.884;2023-02-15T01:54:56;1.10;98.30
56137;DHT22;42008;52.934;5.884;2023-02-15T01:57:24;1.20;99.90
56137;DHT22;42008;52.934;5.884;2023-02-15T01:59:57;1.50;93.30
56137;DHT22;42008;52.934;5.884;2023-02-15T02:02:25;0.70;15.60
56137;DHT22;42008;52.934;5.884;2023-02-15T02:04:56;1.00;23.70
56137;DHT22;42008;52.934;5.884;2023-02-15T02:07:27;1.10;38.20
56137;DHT22;42008;52.934;5.884;2023-02-15T02:09:54;0.80;88.90
56137;DHT22;42008;52.934;5.884;2023-02-15T02:12:21;0.90;91.60
56137;DHT22;42008;52.934;5.884;2023-02-15T02:14:48;1.40;79.20
56137;DHT22;42008;52.934;5.884;2023-02-15T02:26:54;0.30;91.10
56137;DHT22;42008;52.934;5.884;2023-02-15T02:34:37;0.10;99.90
56137;DHT22;42008;52.934;5.884;2023-02-15T02:37:37;0.20;99.90
56137;DHT22;42008;52.934;5.884;2023-02-15T02:42:59;0.40;99.90
56137;DHT22;42008;52.934;5.884;2023-02-15T02:45:40;0.40;99.90
56137;DHT22;42008;52.934;5.884;2023-02-15T02:48:13;0.40;99.90
56137;DHT22;42008;52.934;5.884;2023-02-15T02:50:41;0.10;99.90
56137;DHT22;42008;52.934;5.884;2023-02-15T02:53:07;0.20;99.90
56137;DHT22;42008;52.934;5.884;2023-02-15T02:55:43;0.10;99.90
56137;DHT22;42008;52.934;5.884;2023-02-15T02:58:14;0.00;99.90
56137;DHT22;42008;52.934;5.884;2023-02-15T03:00:51;0.40;99.90
56137;DHT22;42008;52.934;5.884;2023-02-15T03:03:24;0.10;99.90
56137;DHT22;42008;52.934;5.884;2023-02-15T03:05:54;0.00;99.90
56137;DHT22;42008;52.934;5.884;2023-02-15T03:08:21;0.10;99.90
56137;DHT22;42008;52.934;5.884;2023-02-15T03:10:51;0.10;99.90
56137;DHT22;42008;52.934;5.884;2023-02-15T03:13:18;0.00;99.90
56137;DHT22;42008;52.934;5.884;2023-02-15T03:15:44;-0.10;99.90
56137;DHT22;42008;52.934;5.884;2023-02-15T03:18:33;0.10;99.90
56137;DHT22;42008;52.934;5.884;2023-02-15T03:21:01;0.00;99.90
56137;DHT22;42008;52.934;5.884;2023-02-15T03:23:28;0.10;99.90
56137;DHT22;42008;52.934;5.884;2023-02-15T03:26:03;-0.30;99.90
56137;DHT22;42008;52.934;5.884;2023-02-15T03:28:41;-0.20;99.90
56137;DHT22;42008;52.934;5.884;2023-02-15T03:31:09;0.00;99.90
56137;DHT22;42008;52.934;5.884;2023-02-15T03:33:43;0.20;99.90
56137;DHT22;42008;52.934;5.884;2023-02-15T03:36:20;0.10;99.90
56137;DHT22;42008;52.934;5.884;2023-02-15T03:38:54;0.30;99.90
56137;DHT22;42008;52.934;5.884;2023-02-15T03:41:27;0.10;99.90
56137;DHT22;42008;52.934;5.884;2023-02-15T03:44:04;-0.40;99.90
56137;DHT22;42008;52.934;5.884;2023-02-15T03:46:47;0.20;99.90
56137;DHT22;42008;52.934;5.884;2023-02-15T03:49:23;0.10;99.90
56137;DHT22;42008;52.934;5.884;2023-02-15T03:51:52;0.40;99.90
56137;DHT22;42008;52.934;5.884;2023-02-15T03:54:26;0.20;99.90
56137;DHT22;42008;52.934;5.884;2023-02-15T03:57:18;0.40;99.90
56137;DHT22;42008;52.934;5.884;2023-02-15T04:05:41;-0.20;99.90
56137;DHT22;42008;52.934;5.884;2023-02-15T04:08:08;-0.20;99.90
56137;DHT22;42008;52.934;5.884;2023-02-15T04:10:34;-0.10;99.90
56137;DHT22;42008;52.934;5.884;2023-02-15T04:13:19;0.10;99.90
56137;DHT22;42008;52.934;5.884;2023-02-15T04:15:45;0.10;99.90
56137;DHT22;42008;52.934;5.884;2023-02-15T04:18:31;0.20;99.90
56137;DHT22;42008;52.934;5.884;2023-02-15T04:21:16;0.60;99.90
56137;DHT22;42008;52.934;5.884;2023-02-15T04:24:00;0.10;99.90
56137;DHT22;42008;52.934;5.884;2023-02-15T04:26:44;0.70;1.00
56137;DHT22;42008;52.934;5.884;2023-02-15T04:29:11;0.00;1.00
56137;DHT22;42008;52.934;5.884;2023-02-15T04:31:36;0.60;1.00
56137;DHT22;42008;52.934;5.884;2023-02-15T04:34:02;0.80;1.00
56137;DHT22;42008;52.934;5.884;2023-02-15T04:36:28;0.40;1.00
56137;DHT22;42008;52.934;5.884;2023-02-15T04:38:53;0.70;1.00
56137;DHT22;42008;52.934;5.884;2023-02-15T04:41:19;0.80;1.00
56137;DHT22;42008;52.934;5.884;2023-02-15T04:43:44;0.10;1.00
56137;DHT22;42008;52.934;5.884;2023-02-15T04:46:10;0.30;1.00
56137;DHT22;42008;52.934;5.884;2023-02-15T04:48:35;0.50;1.00
56137;DHT22;42008;52.934;5.884;2023-02-15T04:51:06;0.30;1.00
56137;DHT22;42008;52.934;5.884;2023-02-15T04:53:32;0.80;1.00
56137;DHT22;42008;52.934;5.884;2023-02-15T04:55:57;-0.10;1.00
56137;DHT22;42008;52.934;5.884;2023-02-15T04:58:23;0.30;1.00
56137;DHT22;42008;52.934;5.884;2023-02-15T05:00:49;0.70;1.00
56137;DHT22;42008;52.934;5.884;2023-02-15T05:03:14;0.00;1.00
56137;DHT22;42008;52.934;5.884;2023-02-15T05:05:40;0.40;1.00
56137;DHT22;42008;52.934;5.884;2023-02-15T05:08:05;0.10;1.00
56137;DHT22;42008;52.934;5.884;2023-02-15T05:10:31;0.20;1.00
56137;DHT22;42008;52.934;5.884;2023-02-15T05:12:57;0.20;1.00
56137;DHT22;42008;52.934;5.884;2023-02-15T05:15:22;0.20;1.00
56137;DHT22;42008;52.934;5.884;2023-02-15T05:17:48;0.10;1.00
56137;DHT22;42008;52.934;5.884;2023-02-15T05:20:13;0.30;1.00
56137;DHT22;42008;52.934;5.884;2023-02-15T05:22:39;0.50;1.00
56137;DHT22;42008;52.934;5.884;2023-02-15T05:25:06;0.10;1.00
56137;DHT22;42008;52.934;5.884;2023-02-15T05:27:50;0.90;1.00
56137;DHT22;42008;52.934;5.884;2023-02-15T05:30:34;0.70;1.00
56137;DHT22;42008;52.934;5.884;2023-02-15T05:33:00;0.20;1.00
56137;DHT22;42008;52.934;5.884;2023-02-15T05:35:25;0.90;1.00
56137;DHT22;42008;52.934;5.884;2023-02-15T05:37:51;0.20;1.00
56137;DHT22;42008;52.934;5.884;2023-02-15T05:40:16;0.60;1.00
56137;DHT22;42008;52.934;5.884;2023-02-15T05:42:42;1.00;1.00
56137;DHT22;42008;52.934;5.884;2023-02-15T05:45:08;0.10;1.00
56137;DHT22;42008;52.934;5.884;2023-02-15T05:47:33;0.30;1.00
56137;DHT22;42008;52.934;5.884;2023-02-15T05:49:59;0.20;1.00
56137;DHT22;42008;52.934;5.884;2023-02-15T05:52:25;0.60;1.00
56137;DHT22;42008;52.934;5.884;2023-02-15T05:54:50;0.10;1.00
56137;DHT22;42008;52.934;5.884;2023-02-15T05:57:16;0.50;1.00
56137;DHT22;42008;52.934;5.884;2023-02-15T05:59:41;-0.20;1.00
56137;DHT22;42008;52.934;5.884;2023-02-15T06:02:07;0.80;2.20
56137;DHT22;42008;52.934;5.884;2023-02-15T06:04:32;0.60;15.30
56137;DHT22;42008;52.934;5.884;2023-02-15T06:06:58;0.20;41.60
56137;DHT22;42008;52.934;5.884;2023-02-15T06:09:23;0.60;51.40
56137;DHT22;42008;52.934;5.884;2023-02-15T06:11:49;0.20;54.30
56137;DHT22;42008;52.934;5.884;2023-02-15T06:14:15;0.30;99.90
56137;DHT22;42008;52.934;5.884;2023-02-15T06:16:40;0.20;99.90
56137;DHT22;42008;52.934;5.884;2023-02-15T06:19:06;0.40;97.10
56137;DHT22;42008;52.934;5.884;2023-02-15T06:21:32;-0.10;99.70
56137;DHT22;42008;52.934;5.884;2023-02-15T06:23:57;-0.10;99.90
56137;DHT22;42008;52.934;5.884;2023-02-15T06:26:23;-0.20;99.90
56137;DHT22;42008;52.934;5.884;2023-02-15T06:28:49;0.40;99.90
56137;DHT22;42008;52.934;5.884;2023-02-15T06:31:14;0.20;99.90
56137;DHT22;42008;52.934;5.884;2023-02-15T06:33:40;0.20;99.90
56137;DHT22;42008;52.934;5.884;2023-02-15T06:36:06;-0.60;99.90
56137;DHT22;42008;52.934;5.884;2023-02-15T06:38:32;-0.10;99.90
56137;DHT22;42008;52.934;5.884;2023-02-15T06:40:57;0.10;99.90
56137;DHT22;42008;52.934;5.884;2023-02-15T06:43:23;0.00;99.90
56137;DHT22;42008;52.934;5.884;2023-02-15T06:45:48;-0.20;99.90
56137;DHT22;42008;52.934;5.884;2023-02-15T06:48:14;0.20;99.90
56137;DHT22;42008;52.934;5.884;2023-02-15T06:50:40;0.20;1.00
56137;DHT22;42008;52.934;5.884;2023-02-15T06:53:06;-0.10;1.00
56137;DHT22;42008;52.934;5.884;2023-02-15T06:55:31;0.20;1.00
56137;DHT22;42008;52.934;5.884;2023-02-15T06:57:57;0.20;1.00
56137;DHT22;42008;52.934;5.884;2023-02-15T07:00:22;0.00;1.00
56137;DHT22;42008;52.934;5.884;2023-02-15T07:02:53;0.20;1.00
56137;DHT22;42008;52.934;5.884;2023-02-15T07:05:21;0.00;1.00
56137;DHT22;42008;52.934;5.884;2023-02-15T07:07:47;0.20;1.00
56137;DHT22;42008;52.934;5.884;2023-02-15T07:10:12;0.20;1.00
56137;DHT22;42008;52.934;5.884;2023-02-15T07:12:38;-0.10;1.00
56137;DHT22;42008;52.934;5.884;2023-02-15T07:15:08;0.30;1.00
56137;DHT22;42008;52.934;5.884;2023-02-15T07:17:36;0.10;1.00
56137;DHT22;42008;52.934;5.884;2023-02-15T07:20:14;0.50;1.00
56137;DHT22;42008;52.934;5.884;2023-02-15T07:22:40;0.10;1.00
56137;DHT22;42008;52.934;5.884;2023-02-15T07:25:07;0.60;99.90
56137;DHT22;42008;52.934;5.884;2023-02-15T07:27:33;0.20;99.90
56137;DHT22;42008;52.934;5.884;2023-02-15T07:30:00;0.50;99.90
56137;DHT22;42008;52.934;5.884;2023-02-15T07:32:30;0.40;99.90
56137;DHT22;42008;52.934;5.884;2023-02-15T07:34:56;0.50;99.90
56137;DHT22;42008;52.934;5.884;2023-02-15T07:37:22;0.30;99.90
56137;DHT22;42008;52.934;5.884;2023-02-15T07:39:47;0.20;99.90
56137;DHT22;42008;52.934;5.884;2023-02-15T07:42:13;0.30;99.90
56137;DHT22;42008;52.934;5.884;2023-02-15T07:44:38;1.00;99.90
56137;DHT22;42008;52.934;5.884;2023-02-15T07:47:04;1.00;99.90
56137;DHT22;42008;52.934;5.884;2023-02-15T07:49:30;0.60;99.90
56137;DHT22;42008;52.934;5.884;2023-02-15T07:51:55;1.20;99.90
56137;DHT22;42008;52.934;5.884;2023-02-15T07:54:21;0.80;99.90
56137;DHT22;42008;52.934;5.884;2023-02-15T07:56:46;1.00;36.90
56137;DHT22;42008;52.934;5.884;2023-02-15T07:59:12;0.90;23.90
56137;DHT22;42008;52.934;5.884;2023-02-15T08:01:39;0.80;13.80
56137;DHT22;42008;52.934;5.884;2023-02-15T08:04:06;1.40;1.00
56137;DHT22;42008;52.934;5.884;2023-02-15T08:06:34;0.90;1.00
56137;DHT22;42008;52.934;5.884;2023-02-15T08:09:06;1.70;1.00
56137;DHT22;42008;52.934;5.884;2023-02-15T08:11:34;1.40;1.00
56137;DHT22;42008;52.934;5.884;2023-02-15T08:14:15;1.70;1.00
56137;DHT22;42008;52.934;5.884;2023-02-15T08:16:49;1.30;1.00
56137;DHT22;42008;52.934;5.884;2023-02-15T08:19:21;1.20;1.00
56137;DHT22;42008;52.934;5.884;2023-02-15T08:21:50;2.30;1.00
56137;DHT22;42008;52.934;5.884;2023-02-15T08:24:19;1.40;1.00
56137;DHT22;42008;52.934;5.884;2023-02-15T08:26:45;1.90;1.00
56137;DHT22;42008;52.934;5.884;2023-02-15T08:29:16;2.30;1.00
56137;DHT22;42008;52.934;5.884;2023-02-15T08:31:43;2.00;1.00
56137;DHT22;42008;52.934;5.884;2023-02-15T08:34:11;2.30;1.00
56137;DHT22;42008;52.934;5.884;2023-02-15T08:36:37;2.20;1.00
56137;DHT22;42008;52.934;5.884;2023-02-15T08:39:04;2.40;1.00
56137;DHT22;42008;52.934;5.884;2023-02-15T08:41:32;2.10;1.00
56137;DHT22;42008;52.934;5.884;2023-02-15T08:44:01;2.10;1.00
56137;DHT22;42008;52.934;5.884;2023-02-15T08:46:29;2.30;1.00
56137;DHT22;42008;52.934;5.884;2023-02-15T08:48:55;2.30;1.00
56137;DHT22;42008;52.934;5.884;2023-02-15T08:51:23;2.30;1.00
56137;DHT22;42008;52.934;5.884;2023-02-15T08:53:51;2.80;1.00
56137;DHT22;42008;52.934;5.884;2023-02-15T08:56:19;2.50;1.00
56137;DHT22;42008;52.934;5.884;2023-02-15T08:58:45;2.50;1.00
56137;DHT22;42008;52.934;5.884;2023-02-15T09:01:16;3.40;1.00
56137;DHT22;42008;52.934;5.884;2023-02-15T09:03:50;3.50;1.00
56137;DHT22;42008;52.934;5.884;2023-02-15T09:06:18;3.70;1.00
56137;DHT22;42008;52.934;5.884;2023-02-15T09:08:44;3.70;1.00
56137;DHT22;42008;52.934;5.884;2023-02-15T09:11:12;3.30;1.00
56137;DHT22;42008;52.934;5.884;2023-02-15T09:13:39;3.80;1.00
56137;DHT22;42008;52.934;5.884;2023-02-15T09:16:07;3.90;1.00
56137;DHT22;42008;52.934;5.884;2023-02-15T09:18:36;4.00;99.90
56137;DHT22;42008;52.934;5.884;2023-02-15T09:21:14;3.70;99.90
56137;DHT22;42008;52.934;5.884;2023-02-15T09:23:41;4.10;99.90
56137;DHT22;42008;52.934;5.884;2023-02-15T09:26:09;4.10;99.90
56137;DHT22;42008;52.934;5.884;2023-02-15T09:28:35;4.70;99.90
56137;DHT22;42008;52.934;5.884;2023-02-15T09:31:15;4.70;99.90
56137;DHT22;42008;52.934;5.884;2023-02-15T09:33:42;4.10;99.90
56137;DHT22;42008;52.934;5.884;2023-02-15T09:36:20;4.90;99.90
56137;DHT22;42008;52.934;5.884;2023-02-15T09:38:50;5.10;68.10
56137;DHT22;42008;52.934;5.884;2023-02-15T09:41:34;5.20;16.00
56137;DHT22;42008;52.934;5.884;2023-02-15T09:44:43;5.00;1.00
56137;DHT22;42008;52.934;5.884;2023-02-15T09:50:02;5.60;1.00
56137;DHT22;42008;52.934;5.884;2023-02-15T09:58:00;5.80;99.90
56137;DHT22;42008;52.934;5.884;2023-02-15T10:01:34;6.00;99.90
56137;DHT22;42008;52.934;5.884;2023-02-15T10:04:01;6.10;99.90
56137;DHT22;42008;52.934;5.884;2023-02-15T10:06:43;6.50;99.90
56137;DHT22;42008;52.934;5.884;2023-02-15T10:23:28;8.00;99.90
56137;DHT22;42008;52.934;5.884;2023-02-15T10:26:19;8.10;1.00
56137;DHT22;42008;52.934;5.884;2023-02-15T10:28:57;8.20;1.00
56137;DHT22;42008;52.934;5.884;2023-02-15T10:31:36;7.70;99.90
56137;DHT22;42008;52.934;5.884;2023-02-15T10:36:51;8.50;99.90
56137;DHT22;42008;52.934;5.884;2023-02-15T10:39:26;8.10;99.90
56137;DHT22;42008;52.934;5.884;2023-02-15T10:42:27;8.70;76.00
56137;DHT22;42008;52.934;5.884;2023-02-15T10:51:13;8.70;1.00
56137;DHT22;42008;52.934;5.884;2023-02-15T10:54:03;8.50;1.00
56137;DHT22;42008;52.934;5.884;2023-02-15T10:56:38;9.50;1.00
56137;DHT22;42008;52.934;5.884;2023-02-15T11:03:02;9.90;99.90
56137;DHT22;42008;52.934;5.884;2023-02-15T11:05:38;9.10;99.90
56137;DHT22;42008;52.934;5.884;2023-02-15T11:08:09;9.30;99.90
56137;DHT22;42008;52.934;5.884;2023-02-15T11:13:08;9.60;99.90
56137;DHT22;42008;52.934;5.884;2023-02-15T11:18:23;9.80;99.90
56137;DHT22;42008;52.934;5.884;2023-02-15T11:20:58;10.70;1.00
56137;DHT22;42008;52.934;5.884;2023-02-15T11:23:26;10.00;10.90
56137;DHT22;42008;52.934;5.884;2023-02-15T11:25:56;9.80;99.90
56137;DHT22;42008;52.934;5.884;2023-02-15T11:28:30;10.60;1.00
56137;DHT22;42008;52.934;5.884;2023-02-15T11:30:58;10.60;1.00
56137;DHT22;42008;52.934;5.884;2023-02-15T11:33:29;11.00;1.00
56137;DHT22;42008;52.934;5.884;2023-02-15T11:36:01;10.70;1.00
56137;DHT22;42008;52.934;5.884;2023-02-15T11:38:32;11.30;99.90
56137;DHT22;42008;52.934;5.884;2023-02-15T11:41:11;11.40;99.90
56137;DHT22;42008;52.934;5.884;2023-02-15T11:43:43;11.10;99.90
56137;DHT22;42008;52.934;5.884;2023-02-15T11:46:13;11.30;99.90
56137;DHT22;42008;52.934;5.884;2023-02-15T11:48:40;11.90;99.90
56137;DHT22;42008;52.934;5.884;2023-02-15T11:51:12;12.00;99.90
56137;DHT22;42008;52.934;5.884;2023-02-15T11:53:39;11.60;1.00
56137;DHT22;42008;52.934;5.884;2023-02-15T11:56:10;11.30;8.70
56137;DHT22;42008;52.934;5.884;2023-02-15T11:58:41;11.20;99.90
56137;DHT22;42008;52.934;5.884;2023-02-15T12:01:22;12.60;44.20
56137;DHT22;42008;52.934;5.884;2023-02-15T12:04:02;12.40;1.00
56137;DHT22;42008;52.934;5.884;2023-02-15T12:06:33;12.40;1.00
56137;DHT22;42008;52.934;5.884;2023-02-15T12:09:20;12.60;1.00
56137;DHT22;42008;52.934;5.884;2023-02-15T12:11:49;12.50;1.00
56137;DHT22;42008;52.934;5.884;2023-02-15T12:14:15;13.10;1.00
56137;DHT22;42008;52.934;5.884;2023-02-15T12:16:50;13.10;1.00
56137;DHT22;42008;52.934;5.884;2023-02-15T12:19:32;13.00;1.00
56137;DHT22;42008;52.934;5.884;2023-02-15T12:21:59;12.20;99.90
56137;DHT22;42008;52.934;5.884;2023-02-15T12:24:44;12.80;99.90
56137;DHT22;42008;52.934;5.884;2023-02-15T12:27:23;11.70;99.90
56137;DHT22;42008;52.934;5.884;2023-02-15T12:29:58;12.30;99.90
56137;DHT22;42008;52.934;5.884;2023-02-15T12:32:35;12.60;99.90
56137;DHT22;42008;52.934;5.884;2023-02-15T12:35:13;12.80;1.00
56137;DHT22;42008;52.934;5.884;2023-02-15T12:37:52;12.20;99.90
56137;DHT22;42008;52.934;5.884;2023-02-15T12:40:29;11.60;99.90
56137;DHT22;42008;52.934;5.884;2023-02-15T12:42:55;12.20;99.90
56137;DHT22;42008;52.934;5.884;2023-02-15T12:45:25;13.00;99.90
56137;DHT22;42008;52.934;5.884;2023-02-15T12:50:41;12.90;99.90
56137;DHT22;42008;52.934;5.884;2023-02-15T12:53:19;13.10;99.90
56137;DHT22;42008;52.934;5.884;2023-02-15T12:56:10;12.10;99.90
56137;DHT22;42008;52.934;5.884;2023-02-15T12:58:39;12.10;99.90
56137;DHT22;42008;52.934;5.884;2023-02-15T13:03:35;11.80;99.90
56137;DHT22;42008;52.934;5.884;2023-02-15T13:06:03;12.20;99.90
56137;DHT22;42008;52.934;5.884;2023-02-15T13:08:46;12.30;99.90
56137;DHT22;42008;52.934;5.884;2023-02-15T13:11:26;12.00;99.90
56137;DHT22;42008;52.934;5.884;2023-02-15T13:14:02;12.00;99.90
56137;DHT22;42008;52.934;5.884;2023-02-15T13:16:35;11.50;99.90
56137;DHT22;42008;52.934;5.884;2023-02-15T13:19:12;11.50;99.90
56137;DHT22;42008;52.934;5.884;2023-02-15T13:21:44;12.00;99.90
56137;DHT22;42008;52.934;5.884;2023-02-15T13:24:41;12.40;99.90
56137;DHT22;42008;52.934;5.884;2023-02-15T13:27:14;12.20;99.90
56137;DHT22;42008;52.934;5.884;2023-02-15T13:29:43;12.30;99.90
56137;DHT22;42008;52.934;5.884;2023-02-15T13:32:29;12.90;99.90
56137;DHT22;42008;52.934;5.884;2023-02-15T13:34:58;13.10;99.90
56137;DHT22;42008;52.934;5.884;2023-02-15T13:40:25;13.00;99.90
56137;DHT22;42008;52.934;5.884;2023-02-15T13:53:48;12.70;99.90
56137;DHT22;42008;52.934;5.884;2023-02-15T14:01:56;12.50;99.90
56137;DHT22;42008;52.934;5.884;2023-02-15T14:05:20;12.30;99.90
56137;DHT22;42008;52.934;5.884;2023-02-15T14:08:01;13.40;99.90
56137;DHT22;42008;52.934;5.884;2023-02-15T14:17:01;12.40;99.90
56137;DHT22;42008;52.934;5.884;2023-02-15T14:24:37;13.00;99.90
56137;DHT22;42008;52.934;5.884;2023-02-15T14:29:59;13.00;99.90
56137;DHT22;42008;52.934;5.884;2023-02-15T14:32:45;13.60;99.90
56137;DHT22;42008;52.934;5.884;2023-02-15T14:35:21;14.30;99.90
56137;DHT22;42008;52.934;5.884;2023-02-15T14:38:02;13.50;99.90
56137;DHT22;42008;52.934;5.884;2023-02-15T14:40:44;14.20;30.40
56137;DHT22;42008;52.934;5.884;2023-02-15T14:43:44;14.70;99.90
56137;DHT22;42008;52.934;5.884;2023-02-15T14:46:24;14.50;99.90
56137;DHT22;42008;52.934;5.884;2023-02-15T14:48:54;13.70;1.00
56137;DHT22;42008;52.934;5.884;2023-02-15T14:54:04;13.60;1.00
56137;DHT22;42008;52.934;5.884;2023-02-15T14:56:29;13.90;99.90
56137;DHT22;42008;52.934;5.884;2023-02-15T14:58:55;13.30;99.90
56137;DHT22;42008;52.934;5.884;2023-02-15T15:01:30;13.10;3.90
56137;DHT22;42008;52.934;5.884;2023-02-15T15:04:27;13.00;99.90
56137;DHT22;42008;52.934;5.884;2023-02-15T15:09:40;11.40;99.90
56137;DHT22;42008;52.934;5.884;2023-02-15T15:12:36;11.40;99.90
56137;DHT22;42008;52.934;5.884;2023-02-15T15:15:02;11.40;99.90
56137;DHT22;42008;52.934;5.884;2023-02-15T15:31:15;10.90;99.90
56137;DHT22;42008;52.934;5.884;2023-02-15T15:42:42;11.40;1.00
56137;DHT22;42008;52.934;5.884;2023-02-15T15:45:30;11.40;1.00
56137;DHT22;42008;52.934;5.884;2023-02-15T15:50:53;10.60;1.00
56137;DHT22;42008;52.934;5.884;2023-02-15T15:53:24;10.70;1.00
56137;DHT22;42008;52.934;5.884;2023-02-15T15:55:54;10.70;18.30
56137;DHT22;42008;52.934;5.884;2023-02-15T15:58:21;10.30;83.60
56137;DHT22;42008;52.934;5.884;2023-02-15T16:00:50;10.50;99.90
56137;DHT22;42008;52.934;5.884;2023-02-15T16:03:25;9.90;99.90
56137;DHT22;42008;52.934;5.884;2023-02-15T16:05:51;9.80;99.90
56137;DHT22;42008;52.934;5.884;2023-02-15T16:08:35;10.50;99.90
56137;DHT22;42008;52.934;5.884;2023-02-15T16:11:14;9.60;99.90
56137;DHT22;42008;52.934;5.884;2023-02-15T16:13:42;9.90;99.90
56137;DHT22;42008;52.934;5.884;2023-02-15T16:16:11;9.90;99.90
56137;DHT22;42008;52.934;5.884;2023-02-15T16:18:37;9.70;99.90
56137;DHT22;42008;52.934;5.884;2023-02-15T16:21:04;9.50;99.90
56137;DHT22;42008;52.934;5.884;2023-02-15T16:23:43;9.70;99.90
56137;DHT22;42008;52.934;5.884;2023-02-15T16:29:00;8.60;99.90
56137;DHT22;42008;52.934;5.884;2023-02-15T16:31:26;9.00;99.90
56137;DHT22;42008;52.934;5.884;2023-02-15T16:33:55;8.30;99.90
56137;DHT22;42008;52.934;5.884;2023-02-15T16:36:26;8.50;1.00
56137;DHT22;42008;52.934;5.884;2023-02-15T16:41:24;8.90;1.00
56137;DHT22;42008;52.934;5.884;2023-02-15T16:43:53;8.40;1.00
56137;DHT22;42008;52.934;5.884;2023-02-15T16:46:35;8.50;1.00
56137;DHT22;42008;52.934;5.884;2023-02-15T16:49:05;7.90;1.00
56137;DHT22;42008;52.934;5.884;2023-02-15T16:51:34;7.90;1.00
56137;DHT22;42008;52.934;5.884;2023-02-15T16:54:06;8.40;40.00
56137;DHT22;42008;52.934;5.884;2023-02-15T16:56:33;7.50;94.20
56137;DHT22;42008;52.934;5.884;2023-02-15T16:59:00;7.60;99.90
56137;DHT22;42008;52.934;5.884;2023-02-15T17:01:29;7.70;99.90
56137;DHT22;42008;52.934;5.884;2023-02-15T17:04:27;7.50;99.90
56137;DHT22;42008;52.934;5.884;2023-02-15T17:07:03;7.40;99.90
56137;DHT22;42008;52.934;5.884;2023-02-15T17:09:30;6.90;99.90
56137;DHT22;42008;52.934;5.884;2023-02-15T17:11:56;7.20;99.90
56137;DHT22;42008;52.934;5.884;2023-02-15T17:14:37;7.50;99.90
56137;DHT22;42008;52.934;5.884;2023-02-15T17:17:11;7.20;99.90
56137;DHT22;42008;52.934;5.884;2023-02-15T17:19:53;7.20;1.00
56137;DHT22;42008;52.934;5.884;2023-02-15T17:22:24;7.30;1.00
56137;DHT22;42008;52.934;5.884;2023-02-15T17:24:59;7.30;99.90
56137;DHT22;42008;52.934;5.884;2023-02-15T17:27:29;7.50;99.90
56137;DHT22;42008;52.934;5.884;2023-02-15T17:30:13;7.10;99.90
56137;DHT22;42008;52.934;5.884;2023-02-15T17:32:59;6.60;99.90
56137;DHT22;42008;52.934;5.884;2023-02-15T17:35:32;7.40;99.90
56137;DHT22;42008;52.934;5.884;2023-02-15T17:38:17;7.40;99.90
56137;DHT22;42008;52.934;5.884;2023-02-15T17:40:43;6.90;1.00
56137;DHT22;42008;52.934;5.884;2023-02-15T17:43:09;6.50;1.00
56137;DHT22;42008;52.934;5.884;2023-02-15T17:45:46;6.40;99.90
56137;DHT22;42008;52.934;5.884;2023-02-15T17:48:20;7.10;1.00
56137;DHT22;42008;52.934;5.884;2023-02-15T17:50:46;7.00;1.00
56137;DHT22;42008;52.934;5.884;2023-02-15T17:53:15;6.30;1.00
56137;DHT22;42008;52.934;5.884;2023-02-15T17:55:40;7.00;99.90
56137;DHT22;42008;52.934;5.884;2023-02-15T17:58:15;6.50;1.00
56137;DHT22;42008;52.934;5.884;2023-02-15T18:00:47;6.30;1.00
56137;DHT22;42008;52.934;5.884;2023-02-15T18:03:41;6.00;1.00
56137;DHT22;42008;52.934;5.884;2023-02-15T18:06:27;6.80;99.90
56137;DHT22;42008;52.934;5.884;2023-02-15T18:09:13;7.00;99.90
56137;DHT22;42008;52.934;5.884;2023-02-15T18:11:57;6.40;99.90
56137;DHT22;42008;52.934;5.884;2023-02-15T18:14:23;7.00;99.90
56137;DHT22;42008;52.934;5.884;2023-02-15T18:16:48;6.20;99.90
56137;DHT22;42008;52.934;5.884;2023-02-15T18:19:25;6.40;99.90
56137;DHT22;42008;52.934;5.884;2023-02-15T18:21:51;6.10;99.90
56137;DHT22;42008;52.934;5.884;2023-02-15T18:24:26;6.30;99.90
56137;DHT22;42008;52.934;5.884;2023-02-15T18:26:53;7.10;58.10
56137;DHT22;42008;52.934;5.884;2023-02-15T18:29:19;6.80;88.80
56137;DHT22;42008;52.934;5.884;2023-02-15T18:31:48;6.20;99.90
56137;DHT22;42008;52.934;5.884;2023-02-15T18:36:47;6.30;99.90
56137;DHT22;42008;52.934;5.884;2023-02-15T18:41:50;6.50;99.90